Terminal Aerodrome Forecast
Issued by NWS Cleveland, OH

Home | Current Version | Previous Version | Text Only | Print | Product List | Glossary On
Versions: 1 2 3 4 5 6 7 8 9 10 11 12 13 14 15 16 17 18 19 20 21 22 23 24 25 26 27 28 29 30
000
FTUS41 KCLE 192000 AAA
TAFCLE
TAF AMD
KCLE 192057Z 1921/2024 12018G30KT P6SM -SHRA SCT025 OVC050
     FM200200 15020G32KT 4SM -SHRA BKN015 OVC025
     FM200900 19015G25KT P6SM SCT015 OVC025
     FM201300 19015G25KT P6SM OVC035=

USA.gov is the U.S. government's official web portal to all federal, state and local government web resources and services.